Winfield, Texas
Current Conditions -  °F | °C
As of 4:35 AM on Monday 22 Dec 2014 (Local Time) from KOSA Reporting Station
Overcast Overcast  
Wind Chill: 53°   Ceiling: 1300
Heat Index: 53°   Visibility: 7mi
Dew Point: 49°   Wind: 9mph
Humidity: 88%   Direction: 160°SSE
Pressure: 29.7"   Gusts: NA
Location:  33.17°N, 95.11°W
Report Text: KOSA 221035Z AUTO 16008KT 7SM OVC013 12/10 A2970 RMK AO1 T01160096
Loading
Personal Weather Stations






























Interactive Weather Map New forecast layout! Learn more

10-Day Weather Forecast

Advertisements
Track Severe Weather on mobile